Bradley Quarters, Arkansas
Current Conditions -  °F | °C
As of 1:53 AM on Friday 31 Oct 2014 (Local Time) from KLLQ Reporting Station
Clear Clear  
Wind Chill: 55°   Ceiling: Unl
Heat Index: 55°   Visibility: 10mi
Dew Point: 48°   Wind: 6mph
Humidity: 77%   Direction: 270°W
Pressure: 30.04"   Gusts: NA
Location:  33.6176°N, 92.1466°W
Report Text: KLLQ 310653Z AUTO 27005KT 10SM CLR 13/09 A3004 RMK AO2 SLP169 T01280089
Loading
Personal Weather Stations






























Interactive Weather Map
Tropical Storm Tracking
New forecast layout! Learn more

10-Day Weather Forecast

Advertisements
Track Severe Weather on mobile